sensor_id;sensor_type;location;lat;lon;timestamp;P1;durP1;ratioP1;P2;durP2;ratioP2
82526;SDS011;72188;41.974;21.456;2024-03-17T00:00:19;27.55;;;16.95;;
82526;SDS011;72188;41.974;21.456;2024-03-17T00:02:45;28.08;;;17.77;;
82526;SDS011;72188;41.974;21.456;2024-03-17T00:05:12;32.47;;;18.35;;
82526;SDS011;72188;41.974;21.456;2024-03-17T00:07:41;30.00;;;17.17;;
82526;SDS011;72188;41.974;21.456;2024-03-17T00:10:07;34.30;;;17.95;;
82526;SDS011;72188;41.974;21.456;2024-03-17T00:12:34;26.73;;;17.35;;
82526;SDS011;72188;41.974;21.456;2024-03-17T00:15:00;36.33;;;17.10;;
82526;SDS011;72188;41.974;21.456;2024-03-17T00:17:26;29.95;;;16.02;;
82526;SDS011;72188;41.974;21.456;2024-03-17T00:19:52;30.17;;;18.08;;
82526;SDS011;72188;41.974;21.456;2024-03-17T00:22:18;28.15;;;16.50;;
82526;SDS011;72188;41.974;21.456;2024-03-17T00:24:45;26.55;;;16.25;;
82526;SDS011;72188;41.974;21.456;2024-03-17T00:27:11;26.45;;;16.25;;
82526;SDS011;72188;41.974;21.456;2024-03-17T00:29:38;29.35;;;18.27;;
82526;SDS011;72188;41.974;21.456;2024-03-17T00:32:05;23.33;;;15.52;;
82526;SDS011;72188;41.974;21.456;2024-03-17T00:34:31;26.38;;;17.20;;
82526;SDS011;72188;41.974;21.456;2024-03-17T00:36:58;28.10;;;17.08;;
82526;SDS011;72188;41.974;21.456;2024-03-17T00:39:24;26.70;;;15.98;;
82526;SDS011;72188;41.974;21.456;2024-03-17T00:41:51;33.40;;;19.88;;
82526;SDS011;72188;41.974;21.456;2024-03-17T00:44:17;40.08;;;18.85;;
82526;SDS011;72188;41.974;21.456;2024-03-17T00:46:43;45.40;;;18.75;;
82526;SDS011;72188;41.974;21.456;2024-03-17T00:49:09;34.05;;;21.27;;
82526;SDS011;72188;41.974;21.456;2024-03-17T00:51:35;39.88;;;20.13;;
82526;SDS011;72188;41.974;21.456;2024-03-17T00:54:02;28.90;;;17.88;;
82526;SDS011;72188;41.974;21.456;2024-03-17T00:56:28;29.92;;;18.20;;
82526;SDS011;72188;41.974;21.456;2024-03-17T00:58:54;31.63;;;19.50;;
82526;SDS011;72188;41.974;21.456;2024-03-17T01:01:20;33.97;;;18.10;;
82526;SDS011;72188;41.974;21.456;2024-03-17T01:03:46;31.88;;;18.15;;
82526;SDS011;72188;41.974;21.456;2024-03-17T01:06:13;30.65;;;18.00;;
82526;SDS011;72188;41.974;21.456;2024-03-17T01:08:39;30.55;;;19.15;;
82526;SDS011;72188;41.974;21.456;2024-03-17T01:11:06;29.02;;;17.38;;
82526;SDS011;72188;41.974;21.456;2024-03-17T01:13:34;28.25;;;18.90;;
82526;SDS011;72188;41.974;21.456;2024-03-17T01:16:02;29.10;;;17.58;;
82526;SDS011;72188;41.974;21.456;2024-03-17T01:18:29;31.50;;;19.25;;
82526;SDS011;72188;41.974;21.456;2024-03-17T01:20:55;30.33;;;17.17;;
82526;SDS011;72188;41.974;21.456;2024-03-17T01:23:21;25.63;;;18.80;;
82526;SDS011;72188;41.974;21.456;2024-03-17T01:25:47;33.67;;;18.35;;
82526;SDS011;72188;41.974;21.456;2024-03-17T01:28:13;31.40;;;19.67;;
82526;SDS011;72188;41.974;21.456;2024-03-17T01:30:39;30.02;;;18.67;;
82526;SDS011;72188;41.974;21.456;2024-03-17T01:33:06;35.60;;;19.67;;
82526;SDS011;72188;41.974;21.456;2024-03-17T01:35:32;41.22;;;25.58;;
82526;SDS011;72188;41.974;21.456;2024-03-17T01:37:58;36.45;;;20.88;;
82526;SDS011;72188;41.974;21.456;2024-03-17T01:40:25;39.05;;;23.25;;
82526;SDS011;72188;41.974;21.456;2024-03-17T01:42:51;35.83;;;26.00;;
82526;SDS011;72188;41.974;21.456;2024-03-17T01:47:43;35.15;;;21.45;;
82526;SDS011;72188;41.974;21.456;2024-03-17T01:50:09;38.20;;;23.50;;
82526;SDS011;72188;41.974;21.456;2024-03-17T01:52:37;34.47;;;22.55;;
82526;SDS011;72188;41.974;21.456;2024-03-17T01:55:03;31.65;;;20.85;;
82526;SDS011;72188;41.974;21.456;2024-03-17T01:57:29;34.83;;;21.10;;
82526;SDS011;72188;41.974;21.456;2024-03-17T01:59:56;34.17;;;21.10;;
82526;SDS011;72188;41.974;21.456;2024-03-17T02:02:23;35.90;;;22.83;;
82526;SDS011;72188;41.974;21.456;2024-03-17T02:04:49;32.80;;;20.85;;
82526;SDS011;72188;41.974;21.456;2024-03-17T02:07:15;34.55;;;21.45;;
82526;SDS011;72188;41.974;21.456;2024-03-17T02:09:41;32.30;;;21.17;;
82526;SDS011;72188;41.974;21.456;2024-03-17T02:12:10;33.40;;;20.98;;
82526;SDS011;72188;41.974;21.456;2024-03-17T02:14:37;34.70;;;20.73;;
82526;SDS011;72188;41.974;21.456;2024-03-17T02:17:03;37.28;;;22.27;;
82526;SDS011;72188;41.974;21.456;2024-03-17T02:19:30;37.80;;;21.38;;
82526;SDS011;72188;41.974;21.456;2024-03-17T02:21:56;33.88;;;20.30;;
82526;SDS011;72188;41.974;21.456;2024-03-17T02:24:22;33.15;;;19.92;;
82526;SDS011;72188;41.974;21.456;2024-03-17T02:26:48;35.50;;;20.55;;
82526;SDS011;72188;41.974;21.456;2024-03-17T02:29:14;34.65;;;20.52;;
82526;SDS011;72188;41.974;21.456;2024-03-17T02:31:40;34.15;;;20.92;;
82526;SDS011;72188;41.974;21.456;2024-03-17T02:34:06;30.30;;;19.77;;
82526;SDS011;72188;41.974;21.456;2024-03-17T02:36:33;33.17;;;20.17;;
82526;SDS011;72188;41.974;21.456;2024-03-17T02:38:59;33.90;;;19.83;;
82526;SDS011;72188;41.974;21.456;2024-03-17T02:41:54;35.60;;;20.52;;
82526;SDS011;72188;41.974;21.456;2024-03-17T02:44:20;29.55;;;19.83;;
82526;SDS011;72188;41.974;21.456;2024-03-17T02:46:46;34.03;;;19.92;;
82526;SDS011;72188;41.974;21.456;2024-03-17T02:49:13;36.72;;;20.55;;
82526;SDS011;72188;41.974;21.456;2024-03-17T02:51:43;33.55;;;18.85;;
82526;SDS011;72188;41.974;21.456;2024-03-17T02:54:09;34.30;;;20.20;;
82526;SDS011;72188;41.974;21.456;2024-03-17T02:56:35;30.80;;;19.92;;
82526;SDS011;72188;41.974;21.456;2024-03-17T02:59:01;31.65;;;20.52;;
82526;SDS011;72188;41.974;21.456;2024-03-17T03:01:27;34.97;;;21.42;;
82526;SDS011;72188;41.974;21.456;2024-03-17T03:03:53;35.65;;;21.10;;
82526;SDS011;72188;41.974;21.456;2024-03-17T03:06:19;37.05;;;21.27;;
82526;SDS011;72188;41.974;21.456;2024-03-17T03:08:46;36.30;;;20.83;;
82526;SDS011;72188;41.974;21.456;2024-03-17T03:11:16;34.65;;;19.75;;
82526;SDS011;72188;41.974;21.456;2024-03-17T03:13:42;31.08;;;19.42;;
82526;SDS011;72188;41.974;21.456;2024-03-17T03:16:12;36.17;;;19.13;;
82526;SDS011;72188;41.974;21.456;2024-03-17T03:18:39;38.28;;;19.30;;
82526;SDS011;72188;41.974;21.456;2024-03-17T03:21:05;39.92;;;20.15;;
82526;SDS011;72188;41.974;21.456;2024-03-17T03:23:31;38.20;;;20.00;;
82526;SDS011;72188;41.974;21.456;2024-03-17T03:25:58;36.13;;;18.77;;
82526;SDS011;72188;41.974;21.456;2024-03-17T03:28:25;39.38;;;18.52;;
82526;SDS011;72188;41.974;21.456;2024-03-17T03:30:51;42.15;;;18.25;;
82526;SDS011;72188;41.974;21.456;2024-03-17T03:33:18;37.95;;;19.27;;
82526;SDS011;72188;41.974;21.456;2024-03-17T03:35:44;57.25;;;19.55;;
82526;SDS011;72188;41.974;21.456;2024-03-17T03:38:11;49.03;;;19.52;;
82526;SDS011;72188;41.974;21.456;2024-03-17T03:40:38;46.85;;;19.85;;
82526;SDS011;72188;41.974;21.456;2024-03-17T03:43:04;52.50;;;18.48;;
82526;SDS011;72188;41.974;21.456;2024-03-17T03:45:30;44.05;;;17.48;;
82526;SDS011;72188;41.974;21.456;2024-03-17T03:47:56;51.30;;;18.23;;
82526;SDS011;72188;41.974;21.456;2024-03-17T03:50:22;37.03;;;17.60;;
82526;SDS011;72188;41.974;21.456;2024-03-17T03:52:48;31.42;;;17.48;;
82526;SDS011;72188;41.974;21.456;2024-03-17T03:55:15;29.48;;;17.63;;
82526;SDS011;72188;41.974;21.456;2024-03-17T03:57:42;28.50;;;18.48;;
82526;SDS011;72188;41.974;21.456;2024-03-17T04:00:11;27.35;;;15.13;;
82526;SDS011;72188;41.974;21.456;2024-03-17T04:02:46;28.95;;;18.08;;
82526;SDS011;72188;41.974;21.456;2024-03-17T04:05:12;26.85;;;17.88;;
82526;SDS011;72188;41.974;21.456;2024-03-17T04:07:38;32.28;;;17.90;;
82526;SDS011;72188;41.974;21.456;2024-03-17T04:10:05;29.20;;;18.63;;
82526;SDS011;72188;41.974;21.456;2024-03-17T04:12:31;31.13;;;18.67;;
82526;SDS011;72188;41.974;21.456;2024-03-17T04:14:58;33.75;;;18.50;;
82526;SDS011;72188;41.974;21.456;2024-03-17T04:17:24;27.95;;;18.83;;
82526;SDS011;72188;41.974;21.456;2024-03-17T04:19:50;31.13;;;19.33;;
82526;SDS011;72188;41.974;21.456;2024-03-17T04:22:17;25.23;;;17.20;;
82526;SDS011;72188;41.974;21.456;2024-03-17T04:24:43;30.77;;;17.75;;
82526;SDS011;72188;41.974;21.456;2024-03-17T04:27:09;28.67;;;17.75;;
82526;SDS011;72188;41.974;21.456;2024-03-17T04:29:35;30.17;;;18.27;;
82526;SDS011;72188;41.974;21.456;2024-03-17T04:32:02;28.90;;;16.88;;
82526;SDS011;72188;41.974;21.456;2024-03-17T04:34:30;29.98;;;17.45;;
82526;SDS011;72188;41.974;21.456;2024-03-17T04:36:56;28.70;;;17.20;;
82526;SDS011;72188;41.974;21.456;2024-03-17T04:39:22;28.08;;;17.38;;
82526;SDS011;72188;41.974;21.456;2024-03-17T04:41:48;28.75;;;17.75;;
82526;SDS011;72188;41.974;21.456;2024-03-17T04:44:15;28.42;;;16.17;;
82526;SDS011;72188;41.974;21.456;2024-03-17T04:46:41;28.45;;;18.13;;
82526;SDS011;72188;41.974;21.456;2024-03-17T04:49:07;30.75;;;18.25;;
82526;SDS011;72188;41.974;21.456;2024-03-17T04:51:33;27.02;;;18.92;;
82526;SDS011;72188;41.974;21.456;2024-03-17T04:54:00;32.75;;;18.38;;
82526;SDS011;72188;41.974;21.456;2024-03-17T04:56:28;29.42;;;18.95;;
82526;SDS011;72188;41.974;21.456;2024-03-17T04:58:54;30.10;;;18.90;;
82526;SDS011;72188;41.974;21.456;2024-03-17T05:01:21;33.65;;;20.15;;
82526;SDS011;72188;41.974;21.456;2024-03-17T05:03:47;41.15;;;24.65;;
82526;SDS011;72188;41.974;21.456;2024-03-17T05:06:13;33.60;;;21.33;;
82526;SDS011;72188;41.974;21.456;2024-03-17T05:08:40;43.95;;;24.58;;
82526;SDS011;72188;41.974;21.456;2024-03-17T05:11:06;45.35;;;26.02;;
82526;SDS011;72188;41.974;21.456;2024-03-17T05:13:32;37.17;;;22.85;;
82526;SDS011;72188;41.974;21.456;2024-03-17T05:16:02;39.65;;;21.95;;
82526;SDS011;72188;41.974;21.456;2024-03-17T05:18:31;30.98;;;19.02;;
82526;SDS011;72188;41.974;21.456;2024-03-17T05:21:03;27.88;;;16.58;;
82526;SDS011;72188;41.974;21.456;2024-03-17T05:23:30;34.50;;;21.10;;
82526;SDS011;72188;41.974;21.456;2024-03-17T05:25:56;35.03;;;21.05;;
82526;SDS011;72188;41.974;21.456;2024-03-17T05:28:24;31.45;;;19.65;;
82526;SDS011;72188;41.974;21.456;2024-03-17T05:30:50;28.20;;;18.40;;
82526;SDS011;72188;41.974;21.456;2024-03-17T05:33:17;29.25;;;18.77;;
82526;SDS011;72188;41.974;21.456;2024-03-17T05:35:56;34.08;;;19.73;;
82526;SDS011;72188;41.974;21.456;2024-03-17T05:38:23;31.73;;;20.73;;
82526;SDS011;72188;41.974;21.456;2024-03-17T05:43:19;30.05;;;19.13;;
82526;SDS011;72188;41.974;21.456;2024-03-17T05:45:45;29.20;;;18.60;;
82526;SDS011;72188;41.974;21.456;2024-03-17T05:48:11;33.25;;;20.17;;
82526;SDS011;72188;41.974;21.456;2024-03-17T05:50:37;36.72;;;19.83;;
82526;SDS011;72188;41.974;21.456;2024-03-17T05:53:04;37.28;;;20.70;;
82526;SDS011;72188;41.974;21.456;2024-03-17T05:55:30;34.42;;;20.45;;
82526;SDS011;72188;41.974;21.456;2024-03-17T05:57:56;27.83;;;15.60;;
82526;SDS011;72188;41.974;21.456;2024-03-17T06:00:22;30.42;;;18.50;;
82526;SDS011;72188;41.974;21.456;2024-03-17T06:02:48;25.45;;;14.65;;
82526;SDS011;72188;41.974;21.456;2024-03-17T06:05:14;27.45;;;16.85;;
82526;SDS011;72188;41.974;21.456;2024-03-17T06:07:41;26.67;;;15.95;;
82526;SDS011;72188;41.974;21.456;2024-03-17T06:10:07;21.00;;;13.63;;
82526;SDS011;72188;41.974;21.456;2024-03-17T06:12:33;23.02;;;10.75;;
82526;SDS011;72188;41.974;21.456;2024-03-17T06:14:59;23.40;;;15.70;;
82526;SDS011;72188;41.974;21.456;2024-03-17T06:17:27;19.17;;;13.82;;
82526;SDS011;72188;41.974;21.456;2024-03-17T06:19:53;23.58;;;13.73;;
82526;SDS011;72188;41.974;21.456;2024-03-17T06:22:19;25.95;;;15.75;;
82526;SDS011;72188;41.974;21.456;2024-03-17T06:24:45;25.80;;;16.02;;
82526;SDS011;72188;41.974;21.456;2024-03-17T06:27:11;33.28;;;14.68;;
82526;SDS011;72188;41.974;21.456;2024-03-17T06:29:38;24.98;;;15.20;;
82526;SDS011;72188;41.974;21.456;2024-03-17T06:32:04;20.42;;;13.65;;
82526;SDS011;72188;41.974;21.456;2024-03-17T06:34:30;21.30;;;13.57;;
82526;SDS011;72188;41.974;21.456;2024-03-17T06:36:56;22.05;;;14.32;;
82526;SDS011;72188;41.974;21.456;2024-03-17T06:39:22;19.98;;;13.57;;
82526;SDS011;72188;41.974;21.456;2024-03-17T06:41:48;17.05;;;11.27;;
82526;SDS011;72188;41.974;21.456;2024-03-17T06:44:15;18.67;;;13.05;;
82526;SDS011;72188;41.974;21.456;2024-03-17T06:46:41;16.13;;;11.05;;
82526;SDS011;72188;41.974;21.456;2024-03-17T06:49:07;21.13;;;13.55;;
82526;SDS011;72188;41.974;21.456;2024-03-17T06:51:33;17.95;;;11.50;;
82526;SDS011;72188;41.974;21.456;2024-03-17T06:53:59;17.10;;;11.30;;
82526;SDS011;72188;41.974;21.456;2024-03-17T06:56:25;14.20;;;7.30;;
82526;SDS011;72188;41.974;21.456;2024-03-17T06:58:51;17.13;;;10.85;;
82526;SDS011;72188;41.974;21.456;2024-03-17T07:01:17;21.25;;;11.80;;
82526;SDS011;72188;41.974;21.456;2024-03-17T07:03:44;14.82;;;9.32;;
82526;SDS011;72188;41.974;21.456;2024-03-17T07:06:10;17.70;;;11.55;;
82526;SDS011;72188;41.974;21.456;2024-03-17T07:08:36;16.92;;;11.15;;
82526;SDS011;72188;41.974;21.456;2024-03-17T07:11:03;15.25;;;10.65;;
82526;SDS011;72188;41.974;21.456;2024-03-17T07:13:31;15.90;;;10.52;;
82526;SDS011;72188;41.974;21.456;2024-03-17T07:15:58;13.20;;;9.70;;
82526;SDS011;72188;41.974;21.456;2024-03-17T07:18:24;16.00;;;10.85;;
82526;SDS011;72188;41.974;21.456;2024-03-17T07:20:51;15.05;;;10.07;;
82526;SDS011;72188;41.974;21.456;2024-03-17T07:23:17;15.98;;;10.93;;
82526;SDS011;72188;41.974;21.456;2024-03-17T07:25:53;15.90;;;10.57;;
82526;SDS011;72188;41.974;21.456;2024-03-17T07:28:19;17.15;;;10.13;;
82526;SDS011;72188;41.974;21.456;2024-03-17T07:30:46;15.73;;;10.63;;
82526;SDS011;72188;41.974;21.456;2024-03-17T07:33:12;16.38;;;10.38;;
82526;SDS011;72188;41.974;21.456;2024-03-17T07:35:46;18.40;;;10.43;;
82526;SDS011;72188;41.974;21.456;2024-03-17T07:38:12;15.00;;;10.70;;
82526;SDS011;72188;41.974;21.456;2024-03-17T07:40:38;15.70;;;9.55;;
82526;SDS011;72188;41.974;21.456;2024-03-17T07:43:04;16.25;;;10.00;;
82526;SDS011;72188;41.974;21.456;2024-03-17T07:45:30;14.68;;;10.50;;
82526;SDS011;72188;41.974;21.456;2024-03-17T07:47:56;16.10;;;10.57;;
82526;SDS011;72188;41.974;21.456;2024-03-17T07:50:22;13.02;;;10.13;;
82526;SDS011;72188;41.974;21.456;2024-03-17T07:52:48;14.07;;;9.70;;
82526;SDS011;72188;41.974;21.456;2024-03-17T07:55:14;9.48;;;7.35;;
82526;SDS011;72188;41.974;21.456;2024-03-17T07:57:40;13.02;;;9.55;;
82526;SDS011;72188;41.974;21.456;2024-03-17T08:00:06;12.35;;;9.35;;
82526;SDS011;72188;41.974;21.456;2024-03-17T08:02:47;12.90;;;9.32;;
82526;SDS011;72188;41.974;21.456;2024-03-17T08:05:13;12.68;;;9.50;;
82526;SDS011;72188;41.974;21.456;2024-03-17T08:07:40;14.20;;;10.68;;
82526;SDS011;72188;41.974;21.456;2024-03-17T08:10:10;14.45;;;10.38;;
82526;SDS011;72188;41.974;21.456;2024-03-17T08:12:36;14.63;;;9.45;;
82526;SDS011;72188;41.974;21.456;2024-03-17T08:15:02;12.35;;;8.20;;
82526;SDS011;72188;41.974;21.456;2024-03-17T08:17:28;10.50;;;6.75;;
82526;SDS011;72188;41.974;21.456;2024-03-17T08:19:54;11.70;;;6.63;;
82526;SDS011;72188;41.974;21.456;2024-03-17T08:22:20;8.05;;;6.07;;
82526;SDS011;72188;41.974;21.456;2024-03-17T08:24:46;14.70;;;7.22;;
82526;SDS011;72188;41.974;21.456;2024-03-17T08:27:12;12.07;;;6.45;;
82526;SDS011;72188;41.974;21.456;2024-03-17T08:29:38;12.38;;;5.90;;
82526;SDS011;72188;41.974;21.456;2024-03-17T08:32:04;12.15;;;6.45;;
82526;SDS011;72188;41.974;21.456;2024-03-17T08:34:32;5.60;;;4.18;;
82526;SDS011;72188;41.974;21.456;2024-03-17T08:36:58;17.63;;;7.07;;
82526;SDS011;72188;41.974;21.456;2024-03-17T08:39:24;8.57;;;5.40;;
82526;SDS011;72188;41.974;21.456;2024-03-17T08:41:50;9.30;;;5.93;;
82526;SDS011;72188;41.974;21.456;2024-03-17T08:44:16;8.68;;;5.53;;
82526;SDS011;72188;41.974;21.456;2024-03-17T08:46:42;11.93;;;6.15;;
82526;SDS011;72188;41.974;21.456;2024-03-17T08:49:09;10.82;;;6.05;;
82526;SDS011;72188;41.974;21.456;2024-03-17T08:51:35;11.55;;;6.03;;
82526;SDS011;72188;41.974;21.456;2024-03-17T08:54:01;10.18;;;5.35;;
82526;SDS011;72188;41.974;21.456;2024-03-17T08:56:27;11.18;;;5.93;;
82526;SDS011;72188;41.974;21.456;2024-03-17T08:58:54;7.57;;;5.15;;
82526;SDS011;72188;41.974;21.456;2024-03-17T09:01:20;10.60;;;6.32;;
82526;SDS011;72188;41.974;21.456;2024-03-17T09:03:46;9.73;;;5.38;;
82526;SDS011;72188;41.974;21.456;2024-03-17T09:06:15;7.57;;;4.10;;
82526;SDS011;72188;41.974;21.456;2024-03-17T09:08:41;9.00;;;5.20;;
82526;SDS011;72188;41.974;21.456;2024-03-17T09:11:11;6.47;;;4.60;;
82526;SDS011;72188;41.974;21.456;2024-03-17T09:13:38;7.60;;;4.63;;
82526;SDS011;72188;41.974;21.456;2024-03-17T09:16:04;9.68;;;4.78;;
82526;SDS011;72188;41.974;21.456;2024-03-17T09:18:31;10.48;;;5.85;;
82526;SDS011;72188;41.974;21.456;2024-03-17T09:20:58;6.47;;;4.40;;
82526;SDS011;72188;41.974;21.456;2024-03-17T09:23:24;8.18;;;4.95;;
82526;SDS011;72188;41.974;21.456;2024-03-17T09:28:27;6.90;;;4.38;;
82526;SDS011;72188;41.974;21.456;2024-03-17T09:30:53;7.57;;;5.43;;
82526;SDS011;72188;41.974;21.456;2024-03-17T09:33:20;8.00;;;5.13;;
82526;SDS011;72188;41.974;21.456;2024-03-17T09:35:53;9.35;;;4.80;;
82526;SDS011;72188;41.974;21.456;2024-03-17T09:38:20;7.65;;;4.95;;
82526;SDS011;72188;41.974;21.456;2024-03-17T09:40:49;9.25;;;4.78;;
82526;SDS011;72188;41.974;21.456;2024-03-17T09:43:22;8.18;;;4.40;;
82526;SDS011;72188;41.974;21.456;2024-03-17T09:45:49;10.60;;;5.28;;
82526;SDS011;72188;41.974;21.456;2024-03-17T09:48:20;4.57;;;2.85;;
82526;SDS011;72188;41.974;21.456;2024-03-17T09:50:53;5.40;;;3.50;;
82526;SDS011;72188;41.974;21.456;2024-03-17T09:53:32;7.97;;;4.75;;
82526;SDS011;72188;41.974;21.456;2024-03-17T09:56:03;8.98;;;4.68;;
82526;SDS011;72188;41.974;21.456;2024-03-17T09:58:29;8.32;;;3.85;;
82526;SDS011;72188;41.974;21.456;2024-03-17T10:00:55;5.97;;;4.00;;
82526;SDS011;72188;41.974;21.456;2024-03-17T10:06:32;12.32;;;5.20;;
82526;SDS011;72188;41.974;21.456;2024-03-17T10:09:01;7.53;;;3.65;;
82526;SDS011;72188;41.974;21.456;2024-03-17T10:11:35;8.20;;;5.65;;
82526;SDS011;72188;41.974;21.456;2024-03-17T10:14:12;9.23;;;5.47;;
82526;SDS011;72188;41.974;21.456;2024-03-17T10:16:41;8.00;;;5.53;;
82526;SDS011;72188;41.974;21.456;2024-03-17T10:19:15;8.88;;;5.70;;
82526;SDS011;72188;41.974;21.456;2024-03-17T10:21:43;10.30;;;6.10;;
82526;SDS011;72188;41.974;21.456;2024-03-17T10:24:23;13.85;;;6.90;;
82526;SDS011;72188;41.974;21.456;2024-03-17T10:26:53;10.73;;;7.28;;
82526;SDS011;72188;41.974;21.456;2024-03-17T10:34:22;8.48;;;5.43;;
82526;SDS011;72188;41.974;21.456;2024-03-17T10:37:09;6.03;;;4.35;;
82526;SDS011;72188;41.974;21.456;2024-03-17T10:39:36;7.57;;;4.82;;
82526;SDS011;72188;41.974;21.456;2024-03-17T10:42:06;10.13;;;6.07;;
82526;SDS011;72188;41.974;21.456;2024-03-17T10:44:34;11.35;;;6.90;;
82526;SDS011;72188;41.974;21.456;2024-03-17T10:47:00;10.68;;;5.85;;
82526;SDS011;72188;41.974;21.456;2024-03-17T10:49:30;8.20;;;5.45;;
82526;SDS011;72188;41.974;21.456;2024-03-17T10:52:01;15.00;;;7.60;;
82526;SDS011;72188;41.974;21.456;2024-03-17T10:54:27;8.88;;;5.40;;
82526;SDS011;72188;41.974;21.456;2024-03-17T10:59:46;8.77;;;6.03;;
82526;SDS011;72188;41.974;21.456;2024-03-17T11:04:54;12.25;;;5.93;;
82526;SDS011;72188;41.974;21.456;2024-03-17T11:07:21;11.18;;;7.50;;
82526;SDS011;72188;41.974;21.456;2024-03-17T11:09:47;10.32;;;6.68;;
82526;SDS011;72188;41.974;21.456;2024-03-17T11:18:28;11.70;;;6.50;;
82526;SDS011;72188;41.974;21.456;2024-03-17T11:20:35;7.03;;;4.90;;
82526;SDS011;72188;41.974;21.456;2024-03-17T11:23:02;11.98;;;6.57;;
82526;SDS011;72188;41.974;21.456;2024-03-17T11:28:00;8.10;;;5.85;;
82526;SDS011;72188;41.974;21.456;2024-03-17T11:42:05;9.40;;;6.15;;
82526;SDS011;72188;41.974;21.456;2024-03-17T11:46:45;15.13;;;7.15;;
82526;SDS011;72188;41.974;21.456;2024-03-17T11:51:44;11.23;;;6.93;;
82526;SDS011;72188;41.974;21.456;2024-03-17T11:54:13;7.50;;;6.35;;
82526;SDS011;72188;41.974;21.456;2024-03-17T11:56:42;11.88;;;7.97;;
82526;SDS011;72188;41.974;21.456;2024-03-17T11:59:08;11.77;;;6.53;;
82526;SDS011;72188;41.974;21.456;2024-03-17T12:01:35;12.93;;;7.80;;
82526;SDS011;72188;41.974;21.456;2024-03-17T12:04:03;11.27;;;7.63;;
82526;SDS011;72188;41.974;21.456;2024-03-17T12:06:31;13.05;;;6.88;;
82526;SDS011;72188;41.974;21.456;2024-03-17T12:11:41;12.52;;;6.18;;
82526;SDS011;72188;41.974;21.456;2024-03-17T12:14:17;9.98;;;6.50;;
82526;SDS011;72188;41.974;21.456;2024-03-17T12:16:47;12.13;;;10.15;;
82526;SDS011;72188;41.974;21.456;2024-03-17T12:19:14;18.83;;;8.07;;
82526;SDS011;72188;41.974;21.456;2024-03-17T12:21:45;9.68;;;4.95;;
82526;SDS011;72188;41.974;21.456;2024-03-17T12:24:15;8.77;;;5.40;;
82526;SDS011;72188;41.974;21.456;2024-03-17T12:26:41;16.58;;;9.80;;
82526;SDS011;72188;41.974;21.456;2024-03-17T12:31:53;12.60;;;7.90;;
82526;SDS011;72188;41.974;21.456;2024-03-17T12:34:20;12.52;;;7.85;;
82526;SDS011;72188;41.974;21.456;2024-03-17T12:39:20;9.65;;;6.50;;
82526;SDS011;72188;41.974;21.456;2024-03-17T12:42:03;10.75;;;6.40;;
82526;SDS011;72188;41.974;21.456;2024-03-17T12:44:30;7.47;;;4.22;;
82526;SDS011;72188;41.974;21.456;2024-03-17T12:46:57;8.55;;;6.15;;
82526;SDS011;72188;41.974;21.456;2024-03-17T12:49:25;9.68;;;6.43;;
82526;SDS011;72188;41.974;21.456;2024-03-17T12:51:51;15.70;;;8.80;;
82526;SDS011;72188;41.974;21.456;2024-03-17T12:54:21;8.93;;;6.43;;
82526;SDS011;72188;41.974;21.456;2024-03-17T12:56:48;11.35;;;5.82;;
82526;SDS011;72188;41.974;21.456;2024-03-17T12:59:40;10.93;;;6.75;;
82526;SDS011;72188;41.974;21.456;2024-03-17T13:02:25;8.32;;;5.50;;
82526;SDS011;72188;41.974;21.456;2024-03-17T13:05:06;9.55;;;5.90;;
82526;SDS011;72188;41.974;21.456;2024-03-17T13:07:35;12.20;;;6.35;;
82526;SDS011;72188;41.974;21.456;2024-03-17T13:10:02;8.40;;;6.20;;
82526;SDS011;72188;41.974;21.456;2024-03-17T13:14:55;10.18;;;6.22;;
82526;SDS011;72188;41.974;21.456;2024-03-17T13:17:21;5.63;;;4.10;;
82526;SDS011;72188;41.974;21.456;2024-03-17T13:19:47;9.50;;;5.93;;
82526;SDS011;72188;41.974;21.456;2024-03-17T13:22:14;10.77;;;6.85;;
82526;SDS011;72188;41.974;21.456;2024-03-17T13:24:41;8.77;;;6.25;;
82526;SDS011;72188;41.974;21.456;2024-03-17T13:27:07;10.63;;;5.63;;
82526;SDS011;72188;41.974;21.456;2024-03-17T13:29:34;6.97;;;4.43;;
82526;SDS011;72188;41.974;21.456;2024-03-17T13:32:03;6.28;;;4.15;;
82526;SDS011;72188;41.974;21.456;2024-03-17T13:34:30;10.75;;;5.25;;
82526;SDS011;72188;41.974;21.456;2024-03-17T13:36:56;11.15;;;6.43;;
82526;SDS011;72188;41.974;21.456;2024-03-17T13:39:26;12.02;;;5.57;;
82526;SDS011;72188;41.974;21.456;2024-03-17T13:41:55;10.65;;;6.03;;
82526;SDS011;72188;41.974;21.456;2024-03-17T13:44:27;8.20;;;6.03;;
82526;SDS011;72188;41.974;21.456;2024-03-17T13:46:53;9.50;;;5.72;;
82526;SDS011;72188;41.974;21.456;2024-03-17T13:49:19;18.05;;;6.93;;
82526;SDS011;72188;41.974;21.456;2024-03-17T13:51:45;12.48;;;7.15;;
82526;SDS011;72188;41.974;21.456;2024-03-17T13:54:11;8.57;;;5.82;;
82526;SDS011;72188;41.974;21.456;2024-03-17T13:56:37;9.60;;;5.70;;
82526;SDS011;72188;41.974;21.456;2024-03-17T13:59:03;6.10;;;4.63;;
82526;SDS011;72188;41.974;21.456;2024-03-17T14:01:29;6.07;;;4.13;;
82526;SDS011;72188;41.974;21.456;2024-03-17T14:03:55;7.30;;;5.00;;
82526;SDS011;72188;41.974;21.456;2024-03-17T14:06:21;7.03;;;4.90;;
82526;SDS011;72188;41.974;21.456;2024-03-17T14:08:47;6.45;;;4.57;;
82526;SDS011;72188;41.974;21.456;2024-03-17T14:11:13;9.68;;;5.90;;
82526;SDS011;72188;41.974;21.456;2024-03-17T14:13:39;5.60;;;4.25;;
82526;SDS011;72188;41.974;21.456;2024-03-17T14:16:05;12.23;;;6.57;;
82526;SDS011;72188;41.974;21.456;2024-03-17T14:18:31;10.57;;;5.10;;
82526;SDS011;72188;41.974;21.456;2024-03-17T14:20:58;9.38;;;6.10;;
82526;SDS011;72188;41.974;21.456;2024-03-17T14:23:24;7.97;;;5.25;;
82526;SDS011;72188;41.974;21.456;2024-03-17T14:25:51;8.68;;;5.70;;
82526;SDS011;72188;41.974;21.456;2024-03-17T14:28:17;8.02;;;5.18;;
82526;SDS011;72188;41.974;21.456;2024-03-17T14:33:10;7.63;;;5.25;;
82526;SDS011;72188;41.974;21.456;2024-03-17T14:35:36;9.80;;;6.20;;
82526;SDS011;72188;41.974;21.456;2024-03-17T14:38:03;8.55;;;5.45;;
82526;SDS011;72188;41.974;21.456;2024-03-17T14:40:29;9.18;;;5.75;;
82526;SDS011;72188;41.974;21.456;2024-03-17T14:42:56;9.48;;;5.38;;
82526;SDS011;72188;41.974;21.456;2024-03-17T14:45:22;9.35;;;5.15;;
82526;SDS011;72188;41.974;21.456;2024-03-17T14:47:51;10.15;;;5.38;;
82526;SDS011;72188;41.974;21.456;2024-03-17T14:50:20;8.27;;;5.63;;
82526;SDS011;72188;41.974;21.456;2024-03-17T14:52:46;10.63;;;5.45;;
82526;SDS011;72188;41.974;21.456;2024-03-17T14:55:13;8.60;;;5.50;;
82526;SDS011;72188;41.974;21.456;2024-03-17T14:57:39;9.07;;;4.93;;
82526;SDS011;72188;41.974;21.456;2024-03-17T15:00:12;10.80;;;5.47;;
82526;SDS011;72188;41.974;21.456;2024-03-17T15:02:42;7.53;;;4.78;;
82526;SDS011;72188;41.974;21.456;2024-03-17T15:07:34;11.68;;;6.55;;
82526;SDS011;72188;41.974;21.456;2024-03-17T15:10:01;8.68;;;5.32;;
82526;SDS011;72188;41.974;21.456;2024-03-17T15:12:28;7.47;;;4.55;;
82526;SDS011;72188;41.974;21.456;2024-03-17T15:14:54;11.55;;;6.82;;
82526;SDS011;72188;41.974;21.456;2024-03-17T15:17:21;11.02;;;6.47;;
82526;SDS011;72188;41.974;21.456;2024-03-17T15:19:47;17.52;;;6.68;;